Time;durP1;ratioP1;P1;durP2;ratioP2;P2;SDS_P1;SDS_P2;PMS_P1;PMS_P2;Temp;Humidity;BMP_temperature;BMP_pressure;BME280_temperature;BME280_humidity;BME280_pressure;Samples;Min_cycle;Max_cycle;Signal;HPM_P1;HPM_P2
2022/04/29 00:00:57;;;;;;;26.97;24.73;;;;;;;22.46;40.63;95544.91;6135743;28;103703;-57
2022/04/29 00:03:59;;;;;;;27.30;25.00;;;;;;;22.44;40.75;95544.41;6130048;28;104720;-56
2022/04/29 00:07:01;;;;;;;26.30;24.13;;;;;;;22.43;40.38;95542.84;6135582;28;103679;-57
2022/04/29 00:10:04;;;;;;;27.60;25.20;;;;;;;22.42;40.75;95550.03;6126953;28;103876;-63
2022/04/29 00:13:07;;;;;;;26.00;23.80;;;;;;;22.43;40.37;95532.16;6132065;28;103803;-56
2022/04/29 00:16:09;;;;;;;27.57;25.20;;;;;;;22.42;40.48;95538.59;6158950;28;103826;-56
2022/04/29 00:19:11;;;;;;;26.47;24.37;;;;;;;22.40;40.33;95536.22;6141251;28;103666;-56
2022/04/29 00:22:12;;;;;;;26.33;24.20;;;;;;;22.41;40.42;95537.00;6121218;28;103653;-55
2022/04/29 00:25:14;;;;;;;25.93;23.87;;;;;;;22.40;40.72;95532.75;6136611;28;104987;-57
2022/04/29 00:28:16;;;;;;;27.20;24.83;;;;;;;22.39;40.75;95539.97;6147473;28;103839;-57
2022/04/29 00:31:18;;;;;;;27.07;24.77;;;;;;;22.40;40.62;95532.75;6149058;28;103469;-56
2022/04/29 00:34:20;;;;;;;26.00;23.80;;;;;;;22.39;40.55;95528.50;6127235;28;103754;-56
2022/04/29 00:37:22;;;;;;;26.23;24.13;;;;;;;22.39;40.62;95539.97;6139811;28;105173;-56
2022/04/29 00:40:29;;;;;;;26.20;24.00;;;;;;;22.38;40.06;95537.59;6150390;28;104944;-56
2022/04/29 00:43:31;;;;;;;26.57;24.37;;;;;;;22.38;40.47;95530.41;6135060;28;103891;-56
2022/04/29 00:46:39;;;;;;;25.83;23.73;;;;;;;22.38;40.26;95533.06;6160942;28;105022;-56
2022/04/29 00:49:42;;;;;;;27.67;25.47;;;;;;;22.37;40.86;95525.34;6141863;28;105082;-56
2022/04/29 00:52:47;;;;;;;27.57;25.23;;;;;;;22.37;40.37;95530.69;6131123;28;104748;-56
2022/04/29 00:55:50;;;;;;;26.50;24.33;;;;;;;22.37;40.30;95525.34;6134046;28;104423;-56
2022/04/29 00:59:04;;;;;;;26.67;24.53;;;;;;;22.33;40.62;95525.13;6145722;28;103902;-56
2022/04/29 01:02:09;;;;;;;25.83;23.73;;;;;;;22.36;40.18;95511.25;6133634;28;103825;-56
2022/04/29 01:05:14;;;;;;;25.93;23.83;;;;;;;22.36;40.50;95518.44;6134190;28;105199;-55
2022/04/29 01:08:15;;;;;;;26.37;24.20;;;;;;;22.35;40.11;95514.19;6136613;28;104871;-56
2022/04/29 01:11:22;;;;;;;25.60;23.50;;;;;;;22.36;40.14;95505.13;6116837;28;103745;-56
2022/04/29 01:14:24;;;;;;;26.13;23.93;;;;;;;22.34;40.43;95510.72;6134079;28;103721;-56
2022/04/29 01:17:26;;;;;;;25.87;23.70;;;;;;;22.35;40.03;95501.66;6132005;28;103598;-56
2022/04/29 01:20:30;;;;;;;27.23;24.93;;;;;;;22.33;40.47;95503.81;6146841;28;105004;-56
2022/04/29 01:23:33;;;;;;;26.50;24.30;;;;;;;22.31;39.89;95500.66;6135234;28;104110;-56
2022/04/29 01:26:35;;;;;;;24.23;22.37;;;;;;;22.32;40.00;95506.78;6140566;28;103341;-56
2022/04/29 01:29:41;;;;;;;26.50;24.30;;;;;;;22.31;40.05;95505.97;6128586;28;103840;-55
2022/04/29 01:32:44;;;;;;;24.77;22.80;;;;;;;22.32;40.25;95498.78;6135523;28;103699;-55
2022/04/29 01:35:46;;;;;;;25.90;23.80;;;;;;;22.34;40.16;95499.25;6139961;28;104590;-54
2022/04/29 01:38:48;;;;;;;25.80;23.70;;;;;;;22.32;40.36;95504.88;6149286;28;104260;-54
2022/04/29 01:41:49;;;;;;;25.20;23.20;;;;;;;22.31;40.19;95500.66;6126830;28;103981;-54
2022/04/29 01:44:51;;;;;;;26.97;24.73;;;;;;;22.32;40.27;95501.44;6139786;28;104679;-54
2022/04/29 01:47:53;;;;;;;26.77;24.57;;;;;;;22.29;40.03;95494.81;6147095;28;104900;-55
2022/04/29 01:50:55;;;;;;;26.30;24.20;;;;;;;22.29;40.25;95502.81;6118256;28;103744;-57
2022/04/29 01:53:57;;;;;;;24.57;22.53;;;;;;;22.31;40.21;95510.53;6129076;28;103991;-59
2022/04/29 01:56:59;;;;;;;26.50;24.20;;;;;;;22.30;39.76;95503.59;6147610;28;104705;-59
2022/04/29 02:00:01;;;;;;;25.73;23.77;;;;;;;22.29;40.18;95507.38;6146941;28;103929;-59
2022/04/29 02:03:03;;;;;;;26.87;24.67;;;;;;;22.27;40.19;95498.88;6123448;28;104738;-58
2022/04/29 02:06:05;;;;;;;26.97;24.77;;;;;;;22.28;40.17;95497.78;6137909;28;104717;-58
2022/04/29 02:09:08;;;;;;;26.10;23.90;;;;;;;22.28;39.74;95503.91;6141720;28;103894;-59
2022/04/29 02:12:11;;;;;;;27.03;24.73;;;;;;;22.28;40.27;95511.13;6141757;28;103848;-55
2022/04/29 02:15:14;;;;;;;28.70;26.30;;;;;;;22.24;40.31;95510.91;6131741;28;103672;-58
2022/04/29 02:18:16;;;;;;;27.10;24.90;;;;;;;22.26;39.91;95510.63;6147735;28;103681;-57
2022/04/29 02:21:17;;;;;;;27.87;25.57;;;;;;;22.27;40.25;95506.88;6115546;28;104824;-58
2022/04/29 02:24:19;;;;;;;26.90;24.70;;;;;;;22.27;39.84;95514.88;6133180;28;105103;-54
2022/04/29 02:27:21;;;;;;;29.17;26.70;;;;;;;22.26;40.14;95513.28;6131027;28;103695;-58
2022/04/29 02:30:22;;;;;;;27.27;25.07;;;;;;;22.28;39.87;95517.25;6145713;28;105023;-57
2022/04/29 02:33:25;;;;;;;27.47;25.17;;;;;;;22.25;39.91;95517.03;6133345;28;104993;-57
2022/04/29 02:36:28;;;;;;;26.10;24.00;;;;;;;22.22;40.21;95513.09;6131193;28;104783;-57
2022/04/29 02:39:29;;;;;;;27.20;25.10;;;;;;;22.24;40.49;95518.91;6149354;28;103689;-57
2022/04/29 02:42:31;;;;;;;26.37;24.27;;;;;;;22.24;40.04;95521.59;6138253;28;104992;-57
2022/04/29 02:45:33;;;;;;;27.50;25.27;;;;;;;22.26;40.33;95518.63;6140625;28;103691;-57
2022/04/29 02:48:34;;;;;;;27.00;24.73;;;;;;;22.26;39.88;95518.63;6127717;28;104981;-58
2022/04/29 02:51:36;;;;;;;27.80;25.60;;;;;;;22.24;40.35;95521.59;6134995;28;104864;-57
2022/04/29 02:54:40;;;;;;;28.17;25.87;;;;;;;22.22;40.04;95526.44;6132740;28;103632;-57
2022/04/29 02:57:41;;;;;;;27.50;25.30;;;;;;;22.23;40.27;95525.34;6147212;28;103770;-58
2022/04/29 03:00:43;;;;;;;28.03;25.73;;;;;;;22.24;40.13;95529.59;6129221;28;105447;-56
2022/04/29 03:03:45;;;;;;;28.30;26.00;;;;;;;22.21;40.27;95527.50;6132641;28;104205;-57
2022/04/29 03:06:46;;;;;;;28.60;26.30;;;;;;;22.23;40.12;95529.88;6137498;28;104532;-57
2022/04/29 03:09:48;;;;;;;27.67;25.50;;;;;;;22.19;40.16;95529.69;6136058;28;104019;-55
2022/04/29 03:12:50;;;;;;;24.20;22.00;;;;;;;22.21;40.14;95524.84;6125401;28;105538;-55
2022/04/29 03:15:52;;;;;;;22.77;20.93;;;;;;;22.18;40.45;95532.63;6136238;28;103696;-58
2022/04/29 03:18:53;;;;;;;22.40;20.53;;;;;;;22.20;39.60;95538.47;6137146;28;103749;-57
2022/04/29 03:21:55;;;;;;;23.37;21.20;;;;;;;22.17;39.67;95529.16;6125738;28;104884;-57
2022/04/29 03:24:57;;;;;;;20.50;19.00;;;;;;;22.20;39.31;95531.25;6134977;28;104918;-58
2022/04/29 03:27:59;;;;;;;21.30;19.57;;;;;;;22.19;39.58;95528.91;6159910;28;103560;-58
2022/04/29 03:31:01;;;;;;;20.20;18.60;;;;;;;22.21;39.64;95534.72;6140531;28;103783;-58
2022/04/29 03:34:02;;;;;;;20.80;19.03;;;;;;;22.19;39.77;95534.22;6122126;28;104706;-57
2022/04/29 03:37:04;;;;;;;21.27;19.37;;;;;;;22.22;39.66;95536.28;6136767;28;103575;-58
2022/04/29 03:40:07;;;;;;;19.57;17.97;;;;;;;22.18;39.83;95533.44;6137331;28;104581;-57
2022/04/29 03:43:10;;;;;;;19.73;18.17;;;;;;;22.19;39.39;95529.69;6131375;28;103692;-58
2022/04/29 03:46:12;;;;;;;16.53;15.23;;;;;;;22.15;39.52;95539.31;6125711;28;105402;-57
2022/04/29 03:52:34;;;;;;;15.93;14.43;;;;;;;22.04;39.17;95543.28;6130251;28;103540;-58
2022/04/29 03:55:36;;;;;;;15.43;13.90;;;;;;;22.10;39.09;95537.56;6131345;28;105010;-59
2022/04/29 03:58:38;;;;;;;16.33;13.00;;;;;;;22.17;38.97;95539.81;6132116;28;103768;-58
2022/04/29 04:01:42;;;;;;;13.97;12.77;;;;;;;22.19;38.71;95547.56;6137010;28;103896;-56
2022/04/29 04:04:44;;;;;;;12.13;11.23;;;;;;;22.19;38.58;95550.22;6132702;28;105035;-58
2022/04/29 04:07:46;;;;;;;12.97;11.87;;;;;;;22.29;38.16;95552.69;6140894;28;104827;-59
2022/04/29 04:10:48;;;;;;;12.97;11.80;;;;;;;22.28;38.54;95554.56;6142473;28;104457;-58
2022/04/29 04:13:50;;;;;;;12.20;10.90;;;;;;;22.30;38.63;95559.59;6127471;28;104433;-57
2022/04/29 04:16:51;;;;;;;11.70;10.70;;;;;;;22.32;37.87;95562.75;6146331;28;103817;-57
2022/04/29 04:19:53;;;;;;;11.43;10.50;;;;;;;22.26;38.39;95562.06;6145992;28;103967;-57
2022/04/29 04:22:55;;;;;;;11.10;10.10;;;;;;;22.26;38.10;95569.28;6161777;28;103895;-58
2022/04/29 04:25:57;;;;;;;11.73;10.67;;;;;;;22.24;38.73;95568.78;6141565;28;103741;-56
2022/04/29 04:28:59;;;;;;;10.90;10.10;;;;;;;22.20;38.61;95567.78;6136426;28;104074;-57
2022/04/29 04:32:01;;;;;;;10.20;9.40;;;;;;;22.17;38.36;95568.34;6132500;28;103999;-57
2022/04/29 04:35:04;;;;;;;10.50;9.57;;;;;;;22.14;38.93;95563.63;6141971;28;103747;-58
2022/04/29 04:38:06;;;;;;;10.67;9.77;;;;;;;22.13;38.47;95568.16;6141571;28;103934;-57
2022/04/29 04:41:08;;;;;;;10.27;9.37;;;;;;;22.14;38.43;95574.28;6136519;28;104095;-57
2022/04/29 04:44:10;;;;;;;10.00;9.20;;;;;;;22.14;38.66;95571.63;6135047;28;103670;-57
2022/04/29 04:47:11;;;;;;;10.10;9.30;;;;;;;22.15;38.86;95571.31;6140015;28;105400;-55
2022/04/29 04:50:13;;;;;;;9.77;8.83;;;;;;;22.13;38.53;95568.16;6139879;28;105133;-57
2022/04/29 04:53:15;;;;;;;9.20;8.50;;;;;;;22.17;38.60;95568.34;6129207;28;104505;-57
2022/04/29 04:56:16;;;;;;;9.80;9.10;;;;;;;22.15;38.57;95559.88;6139434;28;104989;-57
2022/04/29 04:59:18;;;;;;;10.23;9.43;;;;;;;22.14;38.56;95558.28;6141747;28;104008;-58
2022/04/29 05:02:24;;;;;;;9.83;9.00;;;;;;;22.16;38.36;95556.13;6142561;28;104683;-57
2022/04/29 05:05:26;;;;;;;9.80;9.00;;;;;;;22.16;38.77;95553.44;6130701;28;103871;-57
2022/04/29 05:08:28;;;;;;;9.47;8.77;;;;;;;22.17;38.88;95558.47;6141659;28;103831;-57
2022/04/29 05:11:30;;;;;;;9.90;9.20;;;;;;;22.18;38.99;95548.59;6141951;28;104902;-56
2022/04/29 05:14:52;;;;;;;9.50;8.70;;;;;;;22.18;38.72;95543.28;6136219;28;106351;-57
2022/04/29 05:17:54;;;;;;;9.77;8.90;;;;;;;22.20;38.31;95551.81;6136178;28;104658;-57
2022/04/29 05:20:56;;;;;;;9.83;9.00;;;;;;;22.18;38.98;95554.75;6141965;28;103726;-57
2022/04/29 05:23:57;;;;;;;10.07;8.93;;;;;;;22.17;38.85;95568.34;6141678;28;104277;-57
2022/04/29 05:27:01;;;;;;;9.70;9.00;;;;;;;22.16;38.71;95556.91;6131610;28;104219;-57
2022/04/29 05:30:03;;;;;;;9.83;9.13;;;;;;;22.17;38.77;95560.34;6141485;28;103768;-57
2022/04/29 05:33:10;;;;;;;10.07;9.37;;;;;;;22.17;38.83;95557.69;6142101;28;103733;-57
2022/04/29 05:36:13;;;;;;;10.10;9.30;;;;;;;22.15;38.99;95560.66;6141586;28;103886;-56
2022/04/29 05:42:35;;;;;;;10.37;9.47;;;;;;;22.18;38.71;95554.75;6141311;28;103861;-57
2022/04/29 05:45:37;;;;;;;9.93;9.10;;;;;;;22.17;38.53;95558.47;6141838;28;104648;-57
2022/04/29 05:48:38;;;;;;;10.00;9.30;;;;;;;22.20;39.13;95557.91;6141615;28;104837;-57
2022/04/29 05:51:40;;;;;;;10.53;9.80;;;;;;;22.17;38.76;95563.81;6131173;28;103748;-57
2022/04/29 05:54:42;;;;;;;10.47;9.57;;;;;;;22.16;39.13;95566.78;6141369;28;103952;-57
2022/04/29 05:57:45;;;;;;;10.07;9.27;;;;;;;22.27;38.75;95563.66;6141159;28;104087;-57
2022/04/29 06:00:46;;;;;;;9.50;8.80;;;;;;;22.29;38.77;95571.34;6134836;28;103961;-54
2022/04/29 06:03:49;;;;;;;9.87;8.97;;;;;;;22.34;39.14;95573.91;6138651;28;105859;-57
2022/04/29 06:06:51;;;;;;;9.83;9.03;;;;;;;22.34;38.84;95582.72;6140139;28;104618;-55
2022/04/29 06:09:53;;;;;;;10.47;9.47;;;;;;;22.40;39.24;95572.75;6140663;28;103703;-58
2022/04/29 06:12:54;;;;;;;9.57;8.77;;;;;;;22.41;38.95;95575.13;6130258;28;103542;-58
2022/04/29 06:15:58;;;;;;;8.70;8.10;;;;;;;22.44;38.54;95586.28;6140637;28;103913;-57
2022/04/29 06:19:00;;;;;;;10.40;9.60;;;;;;;22.42;39.23;95581.25;6140669;28;103708;-57
2022/04/29 06:22:02;;;;;;;9.70;9.00;;;;;;;22.44;39.17;95589.75;6140750;28;103764;-58
2022/04/29 06:25:04;;;;;;;10.63;9.70;;;;;;;22.41;38.70;95587.69;6130411;28;103469;-58
2022/04/29 06:28:13;;;;;;;10.00;9.20;;;;;;;22.37;39.00;95579.47;6140741;28;103963;-56
2022/04/29 06:31:16;;;;;;;10.80;9.97;;;;;;;22.36;39.05;95587.78;6141056;28;105004;-57
2022/04/29 06:34:17;;;;;;;10.00;9.20;;;;;;;22.36;39.08;95590.44;6136719;28;104607;-57
2022/04/29 06:37:20;;;;;;;10.77;9.87;;;;;;;22.31;39.14;95583.31;6134973;28;103793;-58
2022/04/29 06:40:25;;;;;;;10.43;9.63;;;;;;;22.30;38.95;95586.25;6139945;28;104694;-57
2022/04/29 06:43:29;;;;;;;10.83;10.03;;;;;;;22.29;39.37;95582.00;6140436;28;104001;-57
2022/04/29 06:46:31;;;;;;;11.63;10.63;;;;;;;22.32;39.36;95576.09;6130120;28;104623;-57
2022/04/29 06:49:33;;;;;;;11.10;10.20;;;;;;;22.30;39.24;95584.38;6139827;28;103632;-57
2022/04/29 06:52:35;;;;;;;10.80;10.00;;;;;;;22.30;39.13;95583.59;6139989;28;103913;-58
2022/04/29 06:55:38;;;;;;;11.00;10.20;;;;;;;22.32;38.96;95586.75;6139745;28;103871;-57
2022/04/29 06:58:40;;;;;;;11.20;10.40;;;;;;;22.30;39.39;95580.94;6129509;28;104804;-57
2022/04/29 07:01:41;;;;;;;11.30;10.40;;;;;;;22.31;38.85;95588.63;6140516;28;103637;-58
2022/04/29 07:04:43;;;;;;;11.80;11.00;;;;;;;22.32;38.75;95581.44;6139902;28;103750;-57
2022/04/29 07:07:49;;;;;;;11.50;10.60;;;;;;;22.28;39.25;95588.44;6140174;28;103849;-56
2022/04/29 07:10:51;;;;;;;11.70;10.80;;;;;;;22.31;39.05;95585.97;6128765;28;104840;-56
2022/04/29 07:13:52;;;;;;;11.87;10.87;;;;;;;22.33;39.32;95575.78;6139831;28;104948;-57
2022/04/29 07:16:55;;;;;;;11.33;10.53;;;;;;;22.34;38.79;95577.38;6139247;28;103822;-57
2022/04/29 07:19:58;;;;;;;11.60;10.70;;;;;;;22.34;39.19;95573.91;6134546;28;103925;-56
2022/04/29 07:23:02;;;;;;;11.70;10.77;;;;;;;22.33;39.36;95575.78;6134245;28;104801;-57
2022/04/29 07:26:03;;;;;;;12.07;11.17;;;;;;;22.35;39.02;95575.53;6139458;28;103537;-57
2022/04/29 07:29:07;;;;;;;12.10;11.20;;;;;;;22.33;38.88;95575.00;6139562;28;104935;-57
2022/04/29 07:32:09;;;;;;;11.33;10.43;;;;;;;22.36;39.11;95566.44;6129107;28;103700;-56
2022/04/29 07:41:51;;;;;;;10.97;10.13;;;;;;;22.38;39.00;95569.59;6138471;28;104864;-57
2022/04/29 07:44:53;;;;;;;10.90;10.10;;;;;;;22.40;38.78;95570.09;6128553;28;104800;-57
2022/04/29 07:48:01;;;;;;;11.63;10.73;;;;;;;22.37;38.90;95570.69;6138942;28;103865;-57
2022/04/29 07:51:02;;;;;;;10.50;9.70;;;;;;;22.36;38.58;95572.56;6138946;28;103997;-57
2022/04/29 07:54:05;;;;;;;11.23;10.40;;;;;;;22.38;39.09;95575.72;6134361;28;104764;-57
2022/04/29 07:57:07;;;;;;;11.17;10.37;;;;;;;22.37;39.18;95568.81;6132571;28;103785;-58
2022/04/29 08:00:10;;;;;;;10.80;10.00;;;;;;;22.37;38.89;95568.81;6138117;28;104339;-57
2022/04/29 08:03:12;;;;;;;11.00;10.10;;;;;;;22.39;38.92;95565.84;6138536;28;103774;-57
2022/04/29 08:06:14;;;;;;;10.97;10.00;;;;;;;22.38;38.79;95564.28;6127845;28;104873;-57
2022/04/29 08:09:15;;;;;;;10.57;9.77;;;;;;;22.39;39.04;95571.97;6138275;28;103813;-57
2022/04/29 08:12:17;;;;;;;10.90;10.10;;;;;;;22.39;38.80;95565.84;6137659;28;103852;-57
2022/04/29 08:15:19;;;;;;;10.57;9.77;;;;;;;22.38;39.26;95565.06;6138765;28;104918;-57
2022/04/29 08:18:20;;;;;;;10.67;9.87;;;;;;;22.38;38.74;95561.59;6127319;28;103866;-58
2022/04/29 08:21:22;;;;;;;12.17;11.13;;;;;;;22.38;39.27;95566.94;6137199;28;104962;-57
2022/04/29 08:24:24;;;;;;;11.17;10.37;;;;;;;22.36;38.77;95559.22;6138631;28;103704;-58
2022/04/29 08:27:28;;;;;;;11.07;10.20;;;;;;;22.35;39.14;95557.66;6138355;28;104999;-58
2022/04/29 08:30:32;;;;;;;10.80;10.00;;;;;;;22.35;39.36;95555.00;6127788;28;105147;-57
2022/04/29 08:33:34;;;;;;;10.70;9.90;;;;;;;22.36;39.16;95559.22;6138520;28;104931;-57
2022/04/29 08:36:36;;;;;;;10.43;9.63;;;;;;;22.32;39.14;95565.44;6138363;28;104657;-57
2022/04/29 08:39:37;;;;;;;9.40;8.80;;;;;;;22.32;37.81;95560.88;6130727;28;103801;-56
2022/04/29 08:42:40;;;;;;;9.10;8.40;;;;;;;22.27;37.52;95558.31;6134657;28;105003;-57
2022/04/29 08:45:42;;;;;;;9.50;8.70;;;;;;;22.22;37.32;95552.28;6137778;28;103652;-58
2022/04/29 08:48:45;;;;;;;8.83;8.23;;;;;;;22.21;36.98;95545.38;6138133;28;103738;-57
2022/04/29 08:51:47;;;;;;;9.00;8.30;;;;;;;22.18;36.67;95543.28;6127587;28;104840;-57
2022/04/29 09:01:30;;;;;;;9.43;8.73;;;;;;;22.23;37.75;95538.66;6136684;28;105246;-52
2022/04/29 09:04:32;;;;;;;9.53;8.70;;;;;;;22.24;37.81;95536.78;6130314;28;104878;-57
2022/04/29 09:08:04;;;;;;;8.90;8.30;;;;;;;22.23;38.23;95536.00;6137893;28;105745;-57
2022/04/29 09:11:07;;;;;;;9.33;8.63;;;;;;;22.24;37.99;95536.78;6137482;28;103669;-58
2022/04/29 09:14:24;;;;;;;9.07;8.37;;;;;;;22.25;37.85;95533.84;6125792;28;104011;-57
2022/04/29 09:17:28;;;;;;;9.13;8.43;;;;;;;22.24;37.95;95528.78;6140840;28;103682;-58
2022/04/29 09:20:29;;;;;;;8.90;8.27;;;;;;;22.24;37.76;95534.13;6141480;28;103708;-59
2022/04/29 09:23:31;;;;;;;8.60;8.00;;;;;;;22.29;38.28;95534.81;6141179;28;103773;-57
2022/04/29 09:26:35;;;;;;;8.90;8.30;;;;;;;22.28;38.10;95522.56;6130795;28;105023;-57
2022/04/29 09:29:42;;;;;;;9.30;8.47;;;;;;;22.29;37.75;95528.69;6141773;28;103390;-58
2022/04/29 09:32:50;;;;;;;9.10;8.40;;;;;;;22.29;38.20;95528.69;6141645;28;103738;-58
2022/04/29 09:35:53;;;;;;;9.03;8.27;;;;;;;22.29;37.79;95534.81;6136280;28;103644;-57
2022/04/29 09:42:16;;;;;;;9.40;8.60;;;;;;;22.29;37.77;95532.16;6140796;28;103727;-58
2022/04/29 09:45:21;;;;;;;9.00;8.30;;;;;;;22.33;38.21;95529.69;6139988;28;102903;-57
2022/04/29 09:48:23;;;;;;;9.00;8.30;;;;;;;22.31;38.25;95527.31;6129732;28;104672;-57
2022/04/29 09:51:49;;;;;;;9.07;8.47;;;;;;;22.32;37.82;95522.75;6139308;28;103956;-58
2022/04/29 09:54:51;;;;;;;8.00;7.50;;;;;;;22.33;37.62;95527.00;6128837;28;104577;-55
2022/04/29 09:57:59;;;;;;;8.77;8.17;;;;;;;22.33;38.32;95525.13;6140602;28;106486;-57
2022/04/29 10:01:03;;;;;;;8.40;7.80;;;;;;;22.35;37.87;95523.00;6130244;28;103864;-58
2022/04/29 10:04:05;;;;;;;8.00;7.43;;;;;;;22.35;37.84;95525.66;6140583;28;103702;-58
2022/04/29 10:07:10;;;;;;;9.43;8.70;;;;;;;22.34;37.80;95518.72;6141130;28;104734;-58
2022/04/29 10:10:14;;;;;;;7.90;7.30;;;;;;;22.35;38.21;95507.00;6135301;28;104753;-57
2022/04/29 10:13:20;;;;;;;9.53;8.83;;;;;;;22.36;37.90;95507.78;6135518;28;103200;-58
2022/04/29 10:16:24;;;;;;;7.77;7.17;;;;;;;22.37;38.16;95504.03;6139728;28;104963;-58
2022/04/29 10:22:51;;;;;;;8.53;7.93;;;;;;;22.38;38.16;95505.59;6129183;28;103728;-57
2022/04/29 10:25:55;;;;;;;7.60;7.10;;;;;;;22.38;37.81;95497.59;6140331;28;103748;-57
2022/04/29 10:28:59;;;;;;;8.60;8.00;;;;;;;22.39;37.97;95501.84;6139624;28;104737;-57
2022/04/29 10:32:08;;;;;;;8.23;7.63;;;;;;;22.39;37.77;95493.84;6140080;28;103814;-58
2022/04/29 10:35:56;;;;;;;7.80;7.30;;;;;;;22.38;38.18;95493.06;6130431;28;103763;-54
2022/04/29 10:39:02;;;;;;;8.23;7.63;;;;;;;22.39;38.05;95491.97;6140224;28;103674;-57
2022/04/29 10:42:11;;;;;;;7.90;7.30;;;;;;;22.40;38.20;95493.56;6140205;28;104859;-57
2022/04/29 10:45:12;;;;;;;7.97;7.40;;;;;;;22.41;38.10;95491.69;6129081;28;103777;-56
2022/04/29 10:48:34;;;;;;;8.30;7.60;;;;;;;22.38;38.13;95479.72;6139285;28;103749;-57
2022/04/29 10:51:36;;;;;;;7.80;7.20;;;;;;;22.42;38.13;95485.25;6139849;28;103844;-58
2022/04/29 10:54:40;;;;;;;8.30;7.70;;;;;;;22.42;37.69;95483.38;6139784;28;103739;-57
2022/04/29 10:57:46;;;;;;;8.73;7.97;;;;;;;22.43;38.07;95478.84;6129079;28;103731;-56
2022/04/29 11:01:14;;;;;;;7.77;7.27;;;;;;;22.45;37.93;95478.53;6140031;28;103967;-57
2022/04/29 11:04:15;;;;;;;8.07;7.47;;;;;;;22.45;37.71;95473.19;6109340;28;104168;-56
2022/04/29 11:07:46;;;;;;;7.70;7.20;;;;;;;22.45;38.01;95470.53;6128335;28;103823;-57
2022/04/29 11:10:53;;;;;;;8.20;7.60;;;;;;;22.45;37.61;95457.97;6139777;28;103778;-56
2022/04/29 11:14:00;;;;;;;7.27;6.77;;;;;;;22.45;37.79;95457.97;6139737;28;103568;-56
2022/04/29 11:17:11;;;;;;;7.20;6.70;;;;;;;22.46;37.73;95454.22;6139380;28;103898;-57
2022/04/29 11:20:25;;;;;;;7.13;6.53;;;;;;;22.45;37.66;95466.00;6128163;28;104827;-57
2022/04/29 11:26:52;;;;;;;7.33;6.83;;;;;;;22.48;37.82;95453.94;6139151;28;103792;-56
2022/04/29 11:30:01;;;;;;;8.13;7.50;;;;;;;22.47;37.62;95449.69;6130561;28;105310;-56
2022/04/29 11:33:03;;;;;;;7.80;7.20;;;;;;;22.47;37.92;95442.47;6139019;28;104693;-58
2022/04/29 11:36:07;;;;;;;7.13;6.63;;;;;;;22.46;37.61;95438.22;6139466;28;103508;-57
2022/04/29 11:39:14;;;;;;;8.27;7.67;;;;;;;22.49;37.47;95448.28;6139080;28;104288;-58
2022/04/29 11:42:19;;;;;;;7.40;6.90;;;;;;;22.48;37.61;95436.06;6128794;28;103717;-57
2022/04/29 11:45:22;;;;;;;7.90;7.30;;;;;;;22.47;37.98;95434.47;6138746;28;104293;-58
2022/04/29 11:48:23;;;;;;;7.17;6.67;;;;;;;22.49;37.91;95429.63;6139114;28;103823;-57
2022/04/29 11:51:30;;;;;;;7.33;6.83;;;;;;;22.50;37.45;95444.53;6138452;28;103967;-58
2022/04/29 11:54:32;;;;;;;7.73;7.13;;;;;;;22.48;37.55;95433.38;6127710;28;103804;-58
2022/04/29 11:57:43;;;;;;;7.50;7.00;;;;;;;22.47;37.94;95431.03;6138521;28;104998;-57
2022/04/29 12:00:59;;;;;;;7.70;7.20;;;;;;;22.48;37.72;95430.72;6139735;28;105038;-58
2022/04/29 12:04:03;;;;;;;7.63;7.03;;;;;;;22.48;38.06;95422.72;6129309;28;105097;-57
2022/04/29 12:07:05;;;;;;;7.07;6.57;;;;;;;22.48;38.08;95424.59;6138670;28;103814;-57
2022/04/29 12:10:21;;;;;;;7.50;7.00;;;;;;;22.49;38.11;95418.16;6138717;28;104587;-58
2022/04/29 12:13:23;;;;;;;7.50;7.00;;;;;;;22.47;37.64;95418.47;6137873;28;103862;-57
2022/04/29 12:16:25;;;;;;;7.20;6.70;;;;;;;22.48;38.19;95420.06;6127665;28;104980;-58
2022/04/29 12:19:27;;;;;;;6.70;6.30;;;;;;;22.46;38.15;95419.56;6138296;28;103696;-58
2022/04/29 12:22:36;;;;;;;7.70;7.20;;;;;;;22.46;38.15;95419.56;6137726;28;103873;-57
2022/04/29 12:25:42;;;;;;;6.80;6.30;;;;;;;22.45;38.08;95415.31;6138713;28;103834;-58
2022/04/29 12:28:53;;;;;;;7.20;6.60;;;;;;;22.44;37.90;95407.63;6128092;28;103819;-58
2022/04/29 12:35:19;;;;;;;7.20;6.70;;;;;;;22.45;37.75;95399.31;6138189;28;103663;-57
2022/04/29 12:38:20;;;;;;;7.07;6.57;;;;;;;22.45;38.22;95396.66;6128366;28;103884;-56
2022/04/29 12:41:25;;;;;;;7.20;6.70;;;;;;;22.46;37.65;95394.78;6137580;28;103661;-58
2022/04/29 12:47:50;;;;;;;7.60;7.10;;;;;;;22.45;37.55;95383.31;6137997;28;104158;-58
2022/04/29 12:50:52;;;;;;;6.37;5.97;;;;;;;22.46;37.96;95376.09;6128534;28;103587;-58
2022/04/29 12:53:56;;;;;;;6.87;6.43;;;;;;;22.45;37.66;95366.53;6141396;28;103919;-58
2022/04/29 12:56:57;;;;;;;7.30;6.80;;;;;;;22.45;38.15;95367.31;6141567;28;103872;-57
2022/04/29 13:00:00;;;;;;;6.73;6.23;;;;;;;22.46;38.15;95374.22;6140732;28;103992;-57
2022/04/29 13:03:07;;;;;;;7.23;6.73;;;;;;;22.44;38.05;95365.75;6133814;28;104674;-57
2022/04/29 13:06:11;;;;;;;6.97;6.47;;;;;;;22.44;37.74;95356.94;6142114;28;104666;-58
2022/04/29 13:09:12;;;;;;;6.87;6.37;;;;;;;22.42;38.18;95351.91;6141547;28;103764;-57
2022/04/29 13:12:15;;;;;;;6.97;6.50;;;;;;;22.43;38.15;95356.16;6131743;28;103858;-58
2022/04/29 13:15:17;;;;;;;6.23;5.83;;;;;;;22.44;38.02;95347.06;6140912;28;103454;-57
2022/04/29 13:18:20;;;;;;;7.03;6.53;;;;;;;22.43;37.72;95342.84;6141581;28;103787;-57
2022/04/29 13:21:22;;;;;;;7.30;6.80;;;;;;;22.43;37.57;95353.50;6141598;28;104579;-58
2022/04/29 13:24:23;;;;;;;6.47;6.03;;;;;;;22.44;37.38;95347.06;6129628;28;103622;-57
2022/04/29 13:27:25;;;;;;;7.47;6.97;;;;;;;22.51;37.57;95339.44;6141955;28;105035;-61
2022/04/29 13:30:27;;;;;;;7.17;6.67;;;;;;;22.56;37.95;95331.34;6141392;28;104315;-60
2022/04/29 13:33:29;;;;;;;7.00;6.50;;;;;;;22.59;37.57;95341.44;6141547;28;104817;-61
2022/04/29 13:36:31;;;;;;;7.60;7.10;;;;;;;22.61;37.74;95328.59;6130163;28;104700;-60
2022/04/29 13:39:32;;;;;;;8.83;8.13;;;;;;;22.55;38.18;95327.09;6140784;28;103954;-57
2022/04/29 13:42:36;;;;;;;8.13;7.50;;;;;;;22.52;37.87;95327.72;6140731;28;103765;-57
2022/04/29 13:45:40;;;;;;;8.03;7.50;;;;;;;22.50;38.24;95324.53;6136090;28;103425;-57
2022/04/29 13:48:42;;;;;;;7.80;7.27;;;;;;;22.48;38.08;95313.38;6135036;28;104126;-58
2022/04/29 13:51:45;;;;;;;8.47;7.83;;;;;;;22.48;37.97;95326.72;6140897;28;103861;-56
2022/04/29 13:54:47;;;;;;;8.13;7.53;;;;;;;22.46;37.75;95320.88;6140271;28;105324;-55
2022/04/29 13:57:48;;;;;;;8.20;7.60;;;;;;;22.46;37.86;95315.56;6130204;28;103900;-57
2022/04/29 14:00:52;;;;;;;8.60;8.00;;;;;;;22.47;38.17;95317.13;6140902;28;103729;-53
2022/04/29 14:03:54;;;;;;;7.97;7.40;;;;;;;22.46;37.86;95312.09;6140551;28;103366;-57
2022/04/29 14:06:56;;;;;;;8.40;7.80;;;;;;;22.45;37.80;95313.97;6140689;28;104842;-57
2022/04/29 14:09:57;;;;;;;8.63;8.03;;;;;;;22.44;38.17;95314.28;6129894;28;103798;-57
2022/04/29 14:13:00;;;;;;;7.33;6.80;;;;;;;22.41;38.40;95313.00;6140717;28;104416;-58
2022/04/29 14:16:01;;;;;;;7.70;7.20;;;;;;;22.41;38.13;95310.34;6140246;28;103751;-57
2022/04/29 14:19:03;;;;;;;8.03;7.43;;;;;;;22.41;37.98;95318.34;6140290;28;103777;-58
2022/04/29 14:22:05;;;;;;;8.10;7.50;;;;;;;22.40;38.12;95316.78;6129355;28;104987;-57
2022/04/29 14:25:11;;;;;;;7.83;7.23;;;;;;;22.31;37.96;95306.00;6139741;28;104851;-58
2022/04/29 14:28:14;;;;;;;8.00;7.40;;;;;;;22.39;37.85;95318.66;6140343;28;104934;-57
2022/04/29 14:31:16;;;;;;;7.20;6.70;;;;;;;22.39;38.17;95323.19;6123349;28;103867;-59
2022/04/29 14:34:18;;;;;;;7.57;6.97;;;;;;;22.35;37.72;95320.34;6132396;28;103818;-57
2022/04/29 14:37:22;;;;;;;7.20;6.70;;;;;;;22.37;37.83;95318.16;6139952;28;103904;-57
2022/04/29 14:40:24;;;;;;;8.10;7.60;;;;;;;22.37;37.70;95326.16;6115995;28;103453;-57